Time;durP1;ratioP1;P1;durP2;ratioP2;P2;SDS_P1;SDS_P2;PMS_P1;PMS_P2;Temp;Humidity;BMP_temperature;BMP_pressure;BME280_temperature;BME280_humidity;BME280_pressure;Samples;Min_cycle;Max_cycle;Signal;HPM_P1;HPM_P2
2022/09/16 00:01:14;;;;;;;0.50;0.40;;;19.50;80.70;;;;;;5048629;28;20069;-77
2022/09/16 00:03:40;;;;;;;1.23;0.60;;;19.40;80.70;;;;;;5021502;28;20040;-78
2022/09/16 00:06:06;;;;;;;0.88;0.40;;;19.40;80.70;;;;;;5010367;28;20034;-77
2022/09/16 00:08:32;;;;;;;0.80;0.40;;;19.50;80.80;;;;;;5029921;28;20140;-77
2022/09/16 00:11:01;;;;;;;1.77;0.50;;;19.50;80.70;;;;;;5049653;28;20064;-77
2022/09/16 00:13:27;;;;;;;0.80;0.50;;;19.50;80.70;;;;;;5019229;28;20041;-77
2022/09/16 00:15:53;;;;;;;0.45;0.30;;;19.50;80.70;;;;;;5028919;28;20033;-76
2022/09/16 00:18:19;;;;;;;0.77;0.50;;;19.50;80.80;;;;;;5001056;28;20048;-76
2022/09/16 00:20:50;;;;;;;0.30;0.30;;;19.50;80.80;;;;;;5010141;28;20024;-77
2022/09/16 00:23:17;;;;;;;;;;;19.50;80.80;;;;;;5022361;28;20116;-77
2022/09/16 00:25:42;;;;;;;0.73;0.35;;;19.50;80.80;;;;;;5005015;28;19917;-76
2022/09/16 00:28:08;;;;;;;0.82;0.40;;;19.50;80.80;;;;;;5026807;28;20094;-77
2022/09/16 00:30:33;;;;;;;0.45;0.30;;;19.50;80.90;;;;;;5004903;28;20116;-78
2022/09/16 00:32:59;;;;;;;0.60;0.40;;;19.50;80.80;;;;;;5011653;28;20026;-77
2022/09/16 00:35:25;;;;;;;0.65;0.30;;;19.40;80.80;;;;;;5010358;28;20545;-78
2022/09/16 00:37:50;;;;;;;1.63;0.50;;;19.40;80.80;;;;;;5010459;28;20025;-78
2022/09/16 00:40:16;;;;;;;0.57;0.30;;;19.40;80.90;;;;;;5027103;28;20029;-77
2022/09/16 00:42:41;;;;;;;1.33;0.45;;;19.40;80.90;;;;;;5030524;28;20023;-76
2022/09/16 00:45:22;;;;;;;0.98;0.50;;;19.40;80.90;;;;;;5022744;28;20140;-77
2022/09/16 00:48:05;;;;;;;1.13;0.40;;;19.40;80.90;;;;;;5026615;28;20753;-76
2022/09/16 00:50:52;;;;;;;1.20;0.32;;;19.40;80.90;;;;;;5040386;28;20043;-78
2022/09/16 00:53:23;;;;;;;0.50;0.30;;;19.40;81.00;;;;;;5004982;28;20026;-77
2022/09/16 00:55:51;;;;;;;1.33;0.57;;;19.40;81.50;;;;;;5022798;28;20025;-77
2022/09/16 00:58:45;;;;;;;0.32;0.32;;;19.40;81.00;;;;;;5022270;28;20029;-77
2022/09/16 01:01:11;;;;;;;0.95;0.50;;;19.40;80.90;;;;;;5004330;28;20042;-77
2022/09/16 01:03:46;;;;;;;0.57;0.30;;;19.50;80.90;;;;;;5030480;28;20044;-76
2022/09/16 01:06:13;;;;;;;0.28;0.28;;;19.50;80.90;;;;;;5027179;28;20033;-78
2022/09/16 01:08:41;;;;;;;0.82;0.40;;;19.50;80.90;;;;;;5006603;28;20485;-77
2022/09/16 01:11:07;;;;;;;1.65;0.50;;;19.50;80.80;;;;;;5021724;28;20561;-77
2022/09/16 01:13:33;;;;;;;0.28;0.28;;;19.50;81.60;;;;;;5021933;28;20062;-78
2022/09/16 01:16:18;;;;;;;0.57;0.50;;;19.50;81.10;;;;;;5054577;28;20552;-76
2022/09/16 01:19:12;;;;;;;0.63;0.40;;;19.50;81.10;;;;;;5017372;28;20501;-77
2022/09/16 01:21:47;;;;;;;0.68;0.40;;;19.50;81.00;;;;;;5005102;28;20057;-77
2022/09/16 01:24:33;;;;;;;0.98;0.38;;;19.40;80.90;;;;;;5033197;28;20124;-76
2022/09/16 01:27:44;;;;;;;0.55;0.50;;;19.40;81.00;;;;;;5025079;28;20036;-76
2022/09/16 01:30:57;;;;;;;0.82;0.32;;;19.40;81.10;;;;;;5038700;28;20037;-75
2022/09/16 01:33:36;;;;;;;1.38;0.70;;;19.40;81.10;;;;;;5003980;28;20524;-76
2022/09/16 01:36:13;;;;;;;1.33;0.50;;;19.40;81.10;;;;;;5027464;28;20108;-77
2022/09/16 01:38:47;;;;;;;0.40;0.30;;;19.40;81.10;;;;;;5007706;28;20547;-76
2022/09/16 01:41:22;;;;;;;0.82;0.40;;;19.40;81.10;;;;;;5039491;28;20061;-77
2022/09/16 01:43:59;;;;;;;0.52;0.40;;;19.40;81.20;;;;;;5045699;28;20042;-77
2022/09/16 01:46:47;;;;;;;0.43;0.40;;;19.40;81.20;;;;;;5032743;28;20118;-76
2022/09/16 01:49:15;;;;;;;0.55;0.35;;;19.40;81.20;;;;;;5008346;28;20116;-77
2022/09/16 01:51:44;;;;;;;0.63;0.40;;;19.40;81.20;;;;;;5028624;28;20098;-76
2022/09/16 01:54:16;;;;;;;0.70;0.38;;;19.40;81.20;;;;;;5025265;28;20026;-77
2022/09/16 01:56:45;;;;;;;;;;;19.40;81.20;;;;;;5008449;28;20389;-77
2022/09/16 01:59:22;;;;;;;0.85;0.50;;;19.40;81.20;;;;;;5048140;28;19920;-78
2022/09/16 02:02:03;;;;;;;0.70;0.30;;;19.40;81.10;;;;;;5027006;28;20045;-77
2022/09/16 02:04:35;;;;;;;0.55;0.40;;;19.40;81.10;;;;;;5007864;28;20045;-78
2022/09/16 02:07:04;;;;;;;1.23;0.47;;;19.40;81.10;;;;;;5046844;28;20102;-78
2022/09/16 02:09:39;;;;;;;1.13;0.40;;;19.40;81.20;;;;;;5029313;28;20448;-77
2022/09/16 02:12:10;;;;;;;0.80;0.32;;;19.40;81.20;;;;;;5024065;28;20025;-78
2022/09/16 02:14:41;;;;;;;1.33;0.40;;;19.40;81.10;;;;;;5018461;28;20092;-77
2022/09/16 02:17:11;;;;;;;1.67;0.60;;;19.40;81.20;;;;;;5009880;28;20032;-77
2022/09/16 02:19:45;;;;;;;0.40;0.40;;;19.40;81.40;;;;;;5032798;28;20028;-77
2022/09/16 02:22:16;;;;;;;0.80;0.40;;;19.30;81.20;;;;;;5051627;28;20036;-78
2022/09/16 02:24:46;;;;;;;0.32;0.32;;;19.40;81.30;;;;;;5004169;28;20078;-77
2022/09/16 02:27:20;;;;;;;1.00;0.40;;;19.30;81.30;;;;;;5027209;28;20045;-77
2022/09/16 02:29:52;;;;;;;0.70;0.43;;;19.40;81.30;;;;;;5000497;28;20033;-77
2022/09/16 02:32:19;;;;;;;0.88;0.40;;;19.40;81.40;;;;;;5044084;28;20097;-78
2022/09/16 02:34:49;;;;;;;0.57;0.40;;;19.40;81.40;;;;;;5079577;28;20030;-77
2022/09/16 02:37:43;;;;;;;1.25;0.50;;;19.40;81.40;;;;;;5022472;28;20031;-77
2022/09/16 02:40:16;;;;;;;0.40;0.30;;;19.40;81.50;;;;;;5023092;28;20032;-78
2022/09/16 02:42:42;;;;;;;0.65;0.30;;;19.30;81.40;;;;;;5032803;28;20077;-78
2022/09/16 02:45:08;;;;;;;0.70;0.40;;;19.40;82.00;;;;;;5024666;28;20462;-76
2022/09/16 02:47:46;;;;;;;0.85;0.40;;;19.30;81.40;;;;;;5030566;28;20067;-76
2022/09/16 02:50:19;;;;;;;0.40;0.25;;;19.30;81.30;;;;;;5026328;28;20062;-77
2022/09/16 02:52:58;;;;;;;0.20;0.20;;;19.40;81.30;;;;;;5035730;28;20012;-78
2022/09/16 02:55:41;;;;;;;0.77;0.40;;;19.40;81.30;;;;;;5022411;28;20036;-77
2022/09/16 02:58:08;;;;;;;0.85;0.40;;;19.40;81.30;;;;;;5025031;28;20025;-77
2022/09/16 03:00:38;;;;;;;0.35;0.30;;;19.40;81.40;;;;;;5033059;28;20044;-77
2022/09/16 03:03:03;;;;;;;0.50;0.40;;;19.30;81.40;;;;;;5006921;28;20086;-78
2022/09/16 03:05:30;;;;;;;0.75;0.40;;;19.30;81.40;;;;;;5024183;28;20037;-78
2022/09/16 03:07:56;;;;;;;0.75;0.57;;;19.40;81.50;;;;;;5013625;28;20033;-77
2022/09/16 03:10:28;;;;;;;1.23;0.50;;;19.40;81.50;;;;;;5023998;28;20095;-76
2022/09/16 03:13:17;;;;;;;0.43;0.40;;;19.40;81.50;;;;;;5007327;28;20025;-76
2022/09/16 03:15:48;;;;;;;0.90;0.38;;;19.30;81.50;;;;;;4999221;28;20036;-77
2022/09/16 03:18:31;;;;;;;0.90;0.22;;;19.40;81.60;;;;;;5033046;28;20030;-76
2022/09/16 03:21:20;;;;;;;0.50;0.30;;;19.30;81.50;;;;;;5028635;28;20025;-77
2022/09/16 03:24:05;;;;;;;0.55;0.40;;;19.30;81.50;;;;;;4993219;28;20040;-78
2022/09/16 03:26:58;;;;;;;1.10;0.52;;;19.30;81.50;;;;;;5017270;28;20033;-77
2022/09/16 03:29:32;;;;;;;0.75;0.40;;;19.30;81.50;;;;;;5024490;28;20088;-77
2022/09/16 03:32:22;;;;;;;0.30;0.30;;;19.30;81.60;;;;;;5024039;28;20064;-77
2022/09/16 03:34:52;;;;;;;0.50;0.30;;;19.30;81.60;;;;;;5026619;28;20042;-77
2022/09/16 03:37:20;;;;;;;0.57;0.30;;;19.40;81.70;;;;;;5034951;28;20443;-78
2022/09/16 03:39:56;;;;;;;0.50;0.30;;;19.30;81.50;;;;;;5015602;28;20029;-77
2022/09/16 03:42:22;;;;;;;0.70;0.35;;;19.30;81.50;;;;;;5009730;28;20076;-77
2022/09/16 03:44:48;;;;;;;0.65;0.30;;;19.40;81.50;;;;;;5010441;28;20065;-78
2022/09/16 03:47:14;;;;;;;0.35;0.32;;;19.40;81.50;;;;;;5009316;28;20033;-76
2022/09/16 03:49:40;;;;;;;0.68;0.40;;;19.40;81.50;;;;;;5023565;28;20034;-77
2022/09/16 03:52:06;;;;;;;0.57;0.40;;;19.40;81.70;;;;;;5054274;28;20098;-75
2022/09/16 03:54:32;;;;;;;0.60;0.30;;;19.40;81.60;;;;;;5026730;28;20030;-76
2022/09/16 03:56:59;;;;;;;0.30;0.30;;;19.30;81.50;;;;;;5007875;28;20037;-77
2022/09/16 03:59:25;;;;;;;1.13;0.30;;;19.40;81.70;;;;;;5011492;28;20116;-78
2022/09/16 04:01:50;;;;;;;0.68;0.40;;;19.30;81.50;;;;;;5008574;28;20116;-77
2022/09/16 04:04:16;;;;;;;0.45;0.30;;;19.30;81.50;;;;;;5026094;28;20038;-78
2022/09/16 04:06:41;;;;;;;0.60;0.30;;;19.30;81.70;;;;;;5037078;28;20827;-77
2022/09/16 04:09:10;;;;;;;0.40;0.40;;;19.30;81.60;;;;;;5023174;28;20058;-77
2022/09/16 04:11:36;;;;;;;0.52;0.40;;;19.30;81.70;;;;;;5030041;28;20033;-77
2022/09/16 04:14:03;;;;;;;0.82;0.40;;;19.30;81.80;;;;;;5029581;28;20025;-76
2022/09/16 04:16:29;;;;;;;0.47;0.30;;;19.30;81.70;;;;;;5033033;28;20417;-76
2022/09/16 04:18:55;;;;;;;1.17;0.40;;;19.30;81.80;;;;;;5044321;28;20026;-76
2022/09/16 04:21:21;;;;;;;0.45;0.30;;;19.30;81.80;;;;;;5022862;28;20090;-76
2022/09/16 04:23:48;;;;;;;0.70;0.40;;;19.30;81.80;;;;;;5005279;28;20533;-77
2022/09/16 04:26:14;;;;;;;1.13;0.38;;;19.30;81.70;;;;;;5005623;28;20033;-78
2022/09/16 04:28:40;;;;;;;0.45;0.30;;;19.30;81.90;;;;;;5022925;28;20854;-77
2022/09/16 04:31:11;;;;;;;0.70;0.40;;;19.30;81.80;;;;;;5023104;28;20136;-77
2022/09/16 04:33:37;;;;;;;0.50;0.40;;;19.30;81.80;;;;;;5025645;28;20029;-77
2022/09/16 04:36:06;;;;;;;0.40;0.30;;;19.30;81.70;;;;;;5007180;28;20063;-77
2022/09/16 04:38:32;;;;;;;0.63;0.40;;;19.30;81.70;;;;;;5005528;28;20078;-77
2022/09/16 04:41:04;;;;;;;0.40;0.28;;;19.30;81.60;;;;;;5012084;28;20030;-76
2022/09/16 04:43:30;;;;;;;1.02;0.30;;;19.40;81.80;;;;;;5020431;28;20029;-79
2022/09/16 04:45:56;;;;;;;0.55;0.30;;;19.30;81.70;;;;;;5015230;28;20037;-79
2022/09/16 04:48:22;;;;;;;1.20;0.40;;;19.30;81.70;;;;;;5006670;28;20026;-83
2022/09/16 04:50:48;;;;;;;0.30;0.30;;;19.30;81.90;;;;;;5009908;28;20148;-78
2022/09/16 04:53:13;;;;;;;0.32;0.32;;;19.30;81.80;;;;;;5020946;28;20061;-79
2022/09/16 04:55:39;;;;;;;0.50;0.38;;;19.30;81.80;;;;;;5032586;28;20033;-79
2022/09/16 04:58:04;;;;;;;0.50;0.40;;;19.30;81.80;;;;;;5027096;28;20049;-78
2022/09/16 05:00:30;;;;;;;0.30;0.30;;;19.30;81.90;;;;;;5007078;28;20421;-78
2022/09/16 05:02:55;;;;;;;0.45;0.30;;;19.30;81.80;;;;;;5007170;28;20051;-79
2022/09/16 05:05:21;;;;;;;0.63;0.30;;;19.30;81.90;;;;;;5044594;28;20108;-79
2022/09/16 05:07:46;;;;;;;0.57;0.32;;;19.30;81.90;;;;;;5014064;28;20524;-78
2022/09/16 05:10:12;;;;;;;0.32;0.30;;;19.20;81.90;;;;;;5058548;28;20031;-79
2022/09/16 05:12:37;;;;;;;1.20;0.25;;;19.30;82.00;;;;;;5027776;28;20497;-77
2022/09/16 05:15:04;;;;;;;0.57;0.35;;;19.30;81.90;;;;;;5023694;28;20467;-77
2022/09/16 05:17:30;;;;;;;0.63;0.30;;;19.30;81.90;;;;;;5007281;28;20030;-78
2022/09/16 05:19:56;;;;;;;0.45;0.30;;;19.20;81.90;;;;;;5044180;28;20029;-78
2022/09/16 05:22:22;;;;;;;0.60;0.40;;;19.30;81.90;;;;;;5013067;28;20037;-79
2022/09/16 05:24:47;;;;;;;0.40;0.30;;;19.20;81.80;;;;;;5021172;28;20503;-77
2022/09/16 05:27:13;;;;;;;1.30;0.50;;;19.30;81.80;;;;;;5024215;28;20029;-78
2022/09/16 05:29:39;;;;;;;0.20;0.20;;;19.30;81.80;;;;;;5029461;28;20074;-77
2022/09/16 05:32:04;;;;;;;0.60;0.30;;;19.30;81.70;;;;;;5033078;28;20032;-78
2022/09/16 05:34:30;;;;;;;0.32;0.22;;;19.30;81.80;;;;;;5021387;28;20082;-79
2022/09/16 05:36:56;;;;;;;0.40;0.30;;;19.30;81.80;;;;;;5014379;28;20022;-79
2022/09/16 05:39:23;;;;;;;0.45;0.45;;;19.30;81.70;;;;;;5010271;28;20022;-79
2022/09/16 05:41:51;;;;;;;0.43;0.40;;;19.30;81.70;;;;;;5028448;28;20032;-79
2022/09/16 05:44:16;;;;;;;1.00;0.52;;;19.30;81.70;;;;;;5012982;28;20025;-80
2022/09/16 05:46:42;;;;;;;0.40;0.30;;;19.30;81.80;;;;;;5029216;28;20029;-79
2022/09/16 05:49:09;;;;;;;0.88;0.40;;;19.30;81.70;;;;;;5029348;28;20029;-80
2022/09/16 05:51:37;;;;;;;1.00;0.40;;;19.30;81.70;;;;;;5013683;28;20025;-80
2022/09/16 05:54:02;;;;;;;1.23;0.50;;;19.30;81.70;;;;;;5029188;28;20034;-81
2022/09/16 05:56:30;;;;;;;0.77;0.50;;;19.30;81.70;;;;;;5016842;28;20076;-79
2022/09/16 05:58:57;;;;;;;0.40;0.40;;;19.30;81.70;;;;;;5019481;28;20057;-85
2022/09/16 06:01:26;;;;;;;0.65;0.25;;;19.30;81.70;;;;;;5010730;28;20037;-86
2022/09/16 06:03:53;;;;;;;0.57;0.30;;;19.30;81.70;;;;;;5025525;28;20214;-77
2022/09/16 06:06:26;;;;;;;0.60;0.43;;;19.20;81.70;;;;;;5007801;28;20027;-77
2022/09/16 06:08:53;;;;;;;0.88;0.38;;;19.20;81.70;;;;;;5007507;28;20033;-77
2022/09/16 06:11:19;;;;;;;0.70;0.43;;;19.20;81.70;;;;;;5009844;28;20838;-81
2022/09/16 06:13:45;;;;;;;0.40;0.40;;;19.20;81.70;;;;;;5011582;28;20034;-83
2022/09/16 06:16:13;;;;;;;1.30;0.50;;;19.20;81.70;;;;;;5006615;28;20033;-78
2022/09/16 06:18:38;;;;;;;0.38;0.32;;;19.20;81.70;;;;;;5008615;28;20030;-79
2022/09/16 06:21:07;;;;;;;0.52;0.40;;;19.20;81.70;;;;;;5007917;28;20505;-79
2022/09/16 06:23:34;;;;;;;0.88;0.40;;;19.30;81.70;;;;;;5007152;28;20036;-79
2022/09/16 06:26:02;;;;;;;0.80;0.30;;;19.30;81.60;;;;;;5025205;28;20037;-80
2022/09/16 06:28:29;;;;;;;1.08;0.40;;;19.30;81.70;;;;;;5025509;28;20079;-80
2022/09/16 06:31:11;;;;;;;1.55;0.43;;;19.30;81.60;;;;;;5025266;28;20029;-78
2022/09/16 06:33:37;;;;;;;1.17;0.80;;;19.30;81.60;;;;;;5024734;28;20025;-78
2022/09/16 06:36:08;;;;;;;0.93;0.50;;;19.30;81.50;;;;;;5006979;28;20295;-78
2022/09/16 06:38:35;;;;;;;0.60;0.40;;;19.30;81.50;;;;;;5007191;28;20033;-79
2022/09/16 06:41:02;;;;;;;0.63;0.40;;;19.30;81.60;;;;;;5007388;28;20040;-81
2022/09/16 06:43:28;;;;;;;0.60;0.40;;;19.30;81.60;;;;;;5006595;28;20318;-79
2022/09/16 06:46:08;;;;;;;0.65;0.30;;;19.30;81.40;;;;;;5007766;28;20033;-78
2022/09/16 06:48:34;;;;;;;0.40;0.30;;;19.40;81.20;;;;;;5025495;28;20393;-79
2022/09/16 06:51:02;;;;;;;0.40;0.40;;;19.40;81.00;;;;;;5007097;28;20038;-79
2022/09/16 06:53:28;;;;;;;1.30;0.43;;;19.50;80.80;;;;;;5007460;28;20089;-79
2022/09/16 06:55:54;;;;;;;0.90;0.30;;;19.60;80.60;;;;;;5007583;28;20120;-78
2022/09/16 06:58:20;;;;;;;0.75;0.40;;;19.50;80.50;;;;;;5024998;28;20040;-80
2022/09/16 07:00:45;;;;;;;0.73;0.40;;;19.50;80.80;;;;;;5024598;28;20046;-78
2022/09/16 07:03:11;;;;;;;0.65;0.40;;;19.60;80.20;;;;;;5007376;28;20028;-79
2022/09/16 07:05:36;;;;;;;0.65;0.35;;;19.70;80.00;;;;;;5026883;28;20350;-80
2022/09/16 07:08:02;;;;;;;0.90;0.50;;;19.70;79.80;;;;;;5026211;28;20078;-80
2022/09/16 07:10:29;;;;;;;0.40;0.40;;;19.80;79.60;;;;;;5025949;28;20029;-80
2022/09/16 07:12:55;;;;;;;1.10;0.40;;;19.90;79.30;;;;;;5025833;28;20034;-80
2022/09/16 07:15:20;;;;;;;0.20;0.20;;;20.00;79.20;;;;;;5025794;28;20026;-80
2022/09/16 07:17:46;;;;;;;1.25;0.30;;;20.00;78.90;;;;;;5026212;28;20494;-80
2022/09/16 07:20:11;;;;;;;1.00;0.50;;;20.00;78.70;;;;;;5026140;28;20032;-80
2022/09/16 07:22:37;;;;;;;0.60;0.43;;;20.00;78.60;;;;;;5008600;28;20029;-80
2022/09/16 07:25:03;;;;;;;1.60;0.50;;;20.00;78.50;;;;;;5026685;28;20538;-79
2022/09/16 07:27:29;;;;;;;0.57;0.45;;;20.10;78.60;;;;;;5009164;28;20030;-80
2022/09/16 07:29:55;;;;;;;0.88;0.40;;;20.00;78.70;;;;;;5026267;28;20397;-80
2022/09/16 07:32:21;;;;;;;0.35;0.35;;;20.00;78.60;;;;;;5008621;28;20033;-80
2022/09/16 07:34:46;;;;;;;0.57;0.50;;;20.00;78.60;;;;;;5006945;28;20070;-79
2022/09/16 07:37:12;;;;;;;1.85;0.30;;;20.00;78.60;;;;;;5008369;28;20033;-80
2022/09/16 07:39:38;;;;;;;0.30;0.30;;;20.00;78.80;;;;;;5007403;28;20385;-81
2022/09/16 07:42:03;;;;;;;0.32;0.30;;;20.00;79.00;;;;;;5005963;28;20056;-78
2022/09/16 07:44:29;;;;;;;0.40;0.32;;;20.00;79.10;;;;;;5006741;28;20034;-80
2022/09/16 07:46:54;;;;;;;1.15;0.50;;;20.00;78.90;;;;;;5007054;28;20368;-80
2022/09/16 07:49:20;;;;;;;0.38;0.30;;;20.10;78.80;;;;;;5006536;28;20030;-80
2022/09/16 07:51:46;;;;;;;0.45;0.35;;;20.10;78.60;;;;;;5024011;28;20037;-79
2022/09/16 07:54:15;;;;;;;0.95;0.47;;;20.10;78.50;;;;;;5006395;28;20025;-79
2022/09/16 07:56:42;;;;;;;0.77;0.38;;;20.20;78.40;;;;;;5024223;28;20070;-78
2022/09/16 07:59:11;;;;;;;0.43;0.40;;;20.20;78.20;;;;;;5023777;28;20038;-79
2022/09/16 08:01:37;;;;;;;1.10;0.30;;;20.30;78.10;;;;;;5005689;28;20030;-79
2022/09/16 08:04:03;;;;;;;0.65;0.52;;;20.30;77.80;;;;;;5006311;28;20026;-80
2022/09/16 08:06:30;;;;;;;0.50;0.40;;;20.40;77.70;;;;;;5005896;28;20029;-81
2022/09/16 08:08:58;;;;;;;1.02;0.52;;;20.50;77.50;;;;;;5023384;28;20057;-79
2022/09/16 08:11:25;;;;;;;0.80;0.50;;;20.50;77.30;;;;;;5023145;28;20026;-78
2022/09/16 08:13:51;;;;;;;0.50;0.50;;;20.60;77.20;;;;;;5005873;28;20395;-78
2022/09/16 08:16:19;;;;;;;0.60;0.50;;;20.60;77.10;;;;;;5006087;28;20478;-79
2022/09/16 08:18:47;;;;;;;0.35;0.35;;;20.60;77.00;;;;;;5005571;28;20743;-80
2022/09/16 08:21:16;;;;;;;0.38;0.30;;;20.60;77.10;;;;;;5005103;28;20124;-81
2022/09/16 08:23:42;;;;;;;0.45;0.32;;;20.60;77.00;;;;;;5023549;28;20041;-78
2022/09/16 08:26:09;;;;;;;0.90;0.40;;;20.60;77.00;;;;;;5023076;28;20189;-78
2022/09/16 08:28:37;;;;;;;0.63;0.40;;;20.60;76.90;;;;;;5023144;28;20030;-78
2022/09/16 08:31:03;;;;;;;0.40;0.40;;;20.70;76.90;;;;;;5005200;28;20052;-78
2022/09/16 08:33:29;;;;;;;0.57;0.30;;;20.70;76.80;;;;;;5023149;28;20472;-78
2022/09/16 08:35:58;;;;;;;1.13;0.50;;;20.70;76.70;;;;;;5023003;28;20082;-78
2022/09/16 08:38:24;;;;;;;1.08;0.52;;;20.70;76.70;;;;;;5022915;28;20486;-79
2022/09/16 08:40:53;;;;;;;0.70;0.50;;;20.70;76.60;;;;;;5005075;28;20037;-80
2022/09/16 08:43:26;;;;;;;1.27;0.47;;;20.80;76.60;;;;;;5023470;28;20038;-79
2022/09/16 08:45:53;;;;;;;0.90;0.50;;;20.80;76.50;;;;;;5022791;28;20457;-78
2022/09/16 08:48:31;;;;;;;0.80;0.43;;;20.80;76.40;;;;;;5023265;28;20059;-78
2022/09/16 08:50:59;;;;;;;0.55;0.40;;;20.90;76.50;;;;;;5022836;28;20102;-79
2022/09/16 08:53:50;;;;;;;0.50;0.40;;;20.90;76.40;;;;;;5023125;28;20188;-78
2022/09/16 08:56:19;;;;;;;0.40;0.30;;;20.90;76.30;;;;;;5005047;28;20300;-79
2022/09/16 08:58:49;;;;;;;0.43;0.30;;;20.90;76.30;;;;;;5005134;28;20292;-77
2022/09/16 09:01:31;;;;;;;0.98;0.60;;;20.90;76.20;;;;;;5022293;28;20033;-78
2022/09/16 09:03:57;;;;;;;0.95;0.50;;;20.90;76.30;;;;;;5022286;28;20030;-78
2022/09/16 09:06:55;;;;;;;0.90;0.35;;;20.90;76.20;;;;;;5022940;28;20102;-77
2022/09/16 09:09:46;;;;;;;0.93;0.60;;;21.00;76.20;;;;;;5004853;28;20107;-78
2022/09/16 09:12:36;;;;;;;1.58;0.60;;;20.80;76.40;;;;;;5004953;28;20029;-80
2022/09/16 09:15:23;;;;;;;1.40;0.50;;;20.80;76.80;;;;;;5005992;28;20052;-80
2022/09/16 09:17:49;;;;;;;0.95;0.50;;;20.70;77.00;;;;;;5006109;28;20434;-79
2022/09/16 09:20:30;;;;;;;1.45;0.52;;;20.70;77.60;;;;;;5005809;28;20117;-80
2022/09/16 09:23:08;;;;;;;1.45;0.50;;;20.70;77.20;;;;;;5005417;28;20326;-79
2022/09/16 09:25:57;;;;;;;1.35;0.50;;;20.70;77.40;;;;;;5005566;28;20025;-79
2022/09/16 09:28:44;;;;;;;1.23;0.50;;;20.70;77.30;;;;;;5005633;28;20338;-80
2022/09/16 09:31:39;;;;;;;0.82;0.40;;;20.70;77.30;;;;;;5022485;28;20025;-79
2022/09/16 09:34:12;;;;;;;0.82;0.52;;;20.70;77.30;;;;;;5023187;28;20026;-80
2022/09/16 09:37:13;;;;;;;1.38;0.50;;;20.70;77.30;;;;;;5023214;28;20021;-79
2022/09/16 09:40:16;;;;;;;1.88;0.50;;;20.70;77.50;;;;;;5005327;28;20060;-78
2022/09/16 09:42:55;;;;;;;0.60;0.43;;;20.60;77.60;;;;;;4998668;28;20045;-79
2022/09/16 09:45:29;;;;;;;1.30;0.52;;;20.60;77.60;;;;;;5002310;28;20026;-78
2022/09/16 09:48:32;;;;;;;0.95;0.47;;;20.50;77.70;;;;;;5016917;28;20109;-79
2022/09/16 09:51:01;;;;;;;0.77;0.40;;;20.50;77.70;;;;;;5025333;28;20422;-79
2022/09/16 09:53:39;;;;;;;0.93;0.50;;;20.50;77.90;;;;;;5009499;28;20086;-80
2022/09/16 09:56:23;;;;;;;1.33;0.40;;;20.50;77.70;;;;;;5021828;28;20427;-80
2022/09/16 09:59:14;;;;;;;1.00;0.30;;;20.50;77.70;;;;;;5005672;28;20493;-79
2022/09/16 10:01:39;;;;;;;1.70;0.47;;;20.50;77.70;;;;;;5008108;28;20416;-79
2022/09/16 10:04:14;;;;;;;0.40;0.40;;;20.50;77.70;;;;;;5008299;28;20026;-79
2022/09/16 10:06:41;;;;;;;0.75;0.50;;;20.60;77.60;;;;;;5009329;28;20033;-79
2022/09/16 10:09:14;;;;;;;1.90;0.57;;;20.60;77.50;;;;;;5008208;28;20390;-79
2022/09/16 10:11:54;;;;;;;1.13;0.40;;;20.60;77.40;;;;;;5007680;28;20094;-79
2022/09/16 10:14:26;;;;;;;0.32;0.32;;;20.70;77.40;;;;;;5007048;28;20074;-79
2022/09/16 10:16:53;;;;;;;0.68;0.30;;;20.70;77.30;;;;;;5024974;28;20068;-79
2022/09/16 10:19:23;;;;;;;0.98;0.45;;;20.70;77.30;;;;;;5007344;28;20026;-79
2022/09/16 10:21:52;;;;;;;1.13;0.50;;;20.70;77.20;;;;;;5025312;28;20038;-79
2022/09/16 10:24:33;;;;;;;1.42;0.60;;;20.70;77.30;;;;;;5007357;28;20098;-79
2022/09/16 10:26:59;;;;;;;;;;;20.70;77.30;;;;;;5025842;28;20065;-79
2022/09/16 10:29:25;;;;;;;1.58;0.47;;;20.60;77.40;;;;;;5007475;28;19931;-78
2022/09/16 10:31:51;;;;;;;1.08;0.40;;;20.60;77.50;;;;;;5006624;28;20505;-79
2022/09/16 10:34:32;;;;;;;0.65;0.40;;;20.60;77.40;;;;;;5007138;28;20070;-79
2022/09/16 10:37:01;;;;;;;0.43;0.30;;;20.60;77.40;;;;;;5007199;28;20029;-79
2022/09/16 10:39:29;;;;;;;0.60;0.30;;;20.60;77.60;;;;;;5024738;28;20025;-79
2022/09/16 10:41:55;;;;;;;0.47;0.35;;;20.60;77.60;;;;;;5006627;28;20061;-79
2022/09/16 10:44:32;;;;;;;0.95;0.45;;;20.60;77.50;;;;;;5006894;28;20068;-77
2022/09/16 10:47:04;;;;;;;0.63;0.50;;;20.70;77.40;;;;;;5007227;28;20038;-79
2022/09/16 10:49:47;;;;;;;1.48;0.50;;;20.70;77.30;;;;;;5024968;28;20103;-80
2022/09/16 10:52:19;;;;;;;1.52;0.50;;;20.70;77.30;;;;;;5007437;28;20026;-79
2022/09/16 10:54:45;;;;;;;0.93;0.40;;;20.70;77.40;;;;;;5025010;28;20017;-80
2022/09/16 10:57:31;;;;;;;0.73;0.40;;;20.70;77.40;;;;;;5007058;28;20040;-80
2022/09/16 11:00:31;;;;;;;1.20;0.40;;;20.60;77.30;;;;;;5006590;28;20036;-78
2022/09/16 11:03:05;;;;;;;;;;;20.70;77.40;;;;;;5028675;28;20414;-79
2022/09/16 11:05:46;;;;;;;1.48;0.57;;;20.70;77.30;;;;;;5023784;28;19948;-79
2022/09/16 11:08:48;;;;;;;1.05;0.40;;;20.70;77.30;;;;;;5024646;28;20049;-79
2022/09/16 11:11:22;;;;;;;1.08;0.45;;;20.70;77.30;;;;;;5024273;28;20037;-79
2022/09/16 11:13:58;;;;;;;0.60;0.40;;;20.70;77.40;;;;;;5006715;28;20401;-78
2022/09/16 11:17:08;;;;;;;0.60;0.50;;;20.60;77.50;;;;;;5024471;28;20447;-78
2022/09/16 11:19:41;;;;;;;1.33;0.45;;;20.60;77.50;;;;;;5006800;28;20029;-78
2022/09/16 11:22:30;;;;;;;0.80;0.52;;;20.60;77.50;;;;;;5006154;28;20508;-79
2022/09/16 11:25:15;;;;;;;1.30;0.52;;;20.60;77.50;;;;;;5005958;28;20030;-79
2022/09/16 11:27:51;;;;;;;1.33;0.45;;;20.70;77.50;;;;;;5024276;28;20033;-78
2022/09/16 11:30:19;;;;;;;0.35;0.35;;;20.70;77.40;;;;;;5024717;28;20038;-79
2022/09/16 11:33:06;;;;;;;0.60;0.40;;;20.70;77.30;;;;;;5023615;28;20068;-78
2022/09/16 11:35:59;;;;;;;1.45;0.30;;;20.70;77.40;;;;;;5023942;28;20489;-81
2022/09/16 11:38:41;;;;;;;0.75;0.40;;;20.60;77.40;;;;;;5024143;28;20032;-78
2022/09/16 11:41:23;;;;;;;1.65;0.47;;;20.60;77.30;;;;;;5005600;28;20037;-80
2022/09/16 11:43:54;;;;;;;0.85;0.50;;;20.70;77.40;;;;;;5023681;28;20030;-79
2022/09/16 11:46:23;;;;;;;;;;;20.60;77.40;;;;;;5025533;28;20021;-79
2022/09/16 11:49:05;;;;;;;1.60;0.50;;;20.60;77.60;;;;;;5024178;28;19920;-80
2022/09/16 11:51:49;;;;;;;0.73;0.43;;;20.50;77.80;;;;;;5023331;28;20100;-79
2022/09/16 11:54:32;;;;;;;1.40;0.50;;;20.40;78.10;;;;;;5007360;28;20033;-78
2022/09/16 11:57:03;;;;;;;0.85;0.35;;;20.40;78.30;;;;;;5007548;28;20536;-80
2022/09/16 11:59:43;;;;;;;1.35;0.50;;;20.30;78.40;;;;;;5005838;28;20572;-78
2022/09/16 12:02:18;;;;;;;;;;;20.30;78.60;;;;;;5024149;28;20564;-78
2022/09/16 12:04:54;;;;;;;1.77;0.35;;;20.20;78.70;;;;;;5020110;28;20347;-77
2022/09/16 12:07:37;;;;;;;1.73;0.52;;;20.20;78.80;;;;;;5004879;28;20315;-79
2022/09/16 12:10:19;;;;;;;1.52;0.50;;;20.20;78.90;;;;;;5005023;28;20410;-78
2022/09/16 12:12:57;;;;;;;2.00;0.50;;;20.20;78.90;;;;;;5005749;28;20086;-79
2022/09/16 12:15:27;;;;;;;0.80;0.50;;;20.20;78.90;;;;;;5021808;28;20040;-79
2022/09/16 12:18:01;;;;;;;0.77;0.30;;;20.30;78.80;;;;;;5021123;28;20514;-76
2022/09/16 12:20:42;;;;;;;1.17;0.30;;;20.20;78.70;;;;;;5022302;28;20041;-79
2022/09/16 12:23:17;;;;;;;1.60;0.40;;;20.30;78.60;;;;;;5023576;28;20036;-79
2022/09/16 12:26:23;;;;;;;1.23;0.35;;;20.30;78.90;;;;;;5004738;28;20585;-79
2022/09/16 12:29:11;;;;;;;0.80;0.40;;;20.40;78.20;;;;;;5020732;28;20506;-77
2022/09/16 12:31:55;;;;;;;1.10;0.45;;;20.40;78.20;;;;;;5023082;28;20039;-79
2022/09/16 12:34:54;;;;;;;0.52;0.30;;;20.40;78.10;;;;;;5035621;28;20033;-79
2022/09/16 12:37:32;;;;;;;0.60;0.40;;;20.40;78.10;;;;;;5001748;28;20078;-78
2022/09/16 12:39:59;;;;;;;0.40;0.38;;;20.40;78.00;;;;;;5024722;28;20511;-78
2022/09/16 12:42:56;;;;;;;1.38;0.40;;;20.40;78.10;;;;;;5024237;28;20030;-77
2022/09/16 12:45:40;;;;;;;0.55;0.35;;;20.40;78.10;;;;;;5019782;28;20401;-78
2022/09/16 12:48:33;;;;;;;0.73;0.30;;;20.40;78.20;;;;;;5028170;28;20035;-78
2022/09/16 12:51:15;;;;;;;0.88;0.40;;;20.40;78.30;;;;;;5019084;28;20041;-78
2022/09/16 12:54:16;;;;;;;1.00;0.40;;;20.30;78.30;;;;;;5033883;28;20022;-79
2022/09/16 12:57:06;;;;;;;1.23;0.40;;;20.30;78.40;;;;;;5016622;28;20531;-79
2022/09/16 12:59:57;;;;;;;1.52;0.40;;;20.30;78.40;;;;;;5043922;28;20408;-79
2022/09/16 13:02:28;;;;;;;0.65;0.32;;;20.30;78.50;;;;;;5022482;28;20052;-79
2022/09/16 13:04:58;;;;;;;0.65;0.35;;;20.30;78.50;;;;;;5023030;28;20161;-78
2022/09/16 13:07:28;;;;;;;0.90;0.35;;;20.30;78.60;;;;;;5036187;28;20028;-78
2022/09/16 13:10:07;;;;;;;0.63;0.38;;;20.30;78.60;;;;;;5029253;28;20061;-78
2022/09/16 13:12:34;;;;;;;1.27;0.40;;;20.20;78.60;;;;;;5024548;28;20029;-79
2022/09/16 13:15:03;;;;;;;0.43;0.38;;;20.30;78.60;;;;;;5016963;28;20265;-79
2022/09/16 13:17:38;;;;;;;0.90;0.30;;;20.30;78.50;;;;;;5031348;28;20477;-78